createdAt,value
2017-07-24T00:00:53.484Z,0
2017-07-24T00:01:55.364Z,0
2017-07-24T00:02:57.236Z,0
2017-07-24T00:03:59.126Z,0
2017-07-24T00:05:00.930Z,0
2017-07-24T00:06:02.757Z,0
2017-07-24T00:07:04.644Z,0
2017-07-24T00:08:06.513Z,0
2017-07-24T00:09:08.399Z,0
2017-07-24T00:10:22.540Z,0
2017-07-24T00:11:24.410Z,0
2017-07-24T00:12:26.301Z,0
2017-07-24T00:13:28.167Z,0
2017-07-24T00:14:29.991Z,0
2017-07-24T00:15:31.802Z,0
2017-07-24T00:16:33.693Z,0
2017-07-24T00:17:35.579Z,0
2017-07-24T00:18:37.471Z,0
2017-07-24T00:19:51.616Z,0
2017-07-24T00:20:53.504Z,0
2017-07-24T00:21:55.370Z,0
2017-07-24T00:22:57.255Z,0
2017-07-24T00:23:59.061Z,0
2017-07-24T00:25:00.888Z,0
2017-07-24T00:26:02.750Z,0
2017-07-24T00:27:04.616Z,0
2017-07-24T00:28:06.485Z,0
2017-07-24T00:29:20.654Z,0
2017-07-24T00:30:22.537Z,0
2017-07-24T00:31:24.407Z,0
2017-07-24T00:32:26.294Z,0
2017-07-24T00:33:28.108Z,0
2017-07-24T00:34:29.925Z,0
2017-07-24T00:35:31.788Z,0
2017-07-24T00:36:33.661Z,0
2017-07-24T00:37:35.552Z,0
2017-07-24T00:38:49.767Z,0
2017-07-24T00:39:51.650Z,0
2017-07-24T00:40:53.521Z,0
2017-07-24T00:41:55.385Z,0
2017-07-24T00:42:57.190Z,0
2017-07-24T00:43:58.995Z,0
2017-07-24T00:45:00.875Z,0
2017-07-24T00:46:02.741Z,0
2017-07-24T00:47:04.611Z,0
2017-07-24T00:48:18.825Z,0
2017-07-24T00:49:20.684Z,0
2017-07-24T00:50:22.546Z,0
2017-07-24T00:51:24.413Z,0
2017-07-24T00:52:26.219Z,0
2017-07-24T00:53:28.050Z,0
2017-07-24T00:54:29.941Z,0
2017-07-24T00:55:31.802Z,0
2017-07-24T00:56:33.693Z,0
2017-07-24T00:57:47.903Z,0
2017-07-24T00:58:49.765Z,0
2017-07-24T00:59:51.634Z,0
2017-07-24T01:00:53.499Z,0
2017-07-24T01:01:55.305Z,0
2017-07-24T01:02:57.138Z,0
2017-07-24T01:03:59.034Z,0
2017-07-24T01:05:00.920Z,0
2017-07-24T01:06:02.808Z,0
2017-07-24T01:07:16.953Z,0
2017-07-24T01:08:18.845Z,0
2017-07-24T01:09:20.733Z,0
2017-07-24T01:10:22.620Z,0
2017-07-24T01:11:24.428Z,0
2017-07-24T01:12:26.236Z,0
2017-07-24T01:13:28.119Z,0
2017-07-24T01:14:29.989Z,0
2017-07-24T01:15:31.880Z,0
2017-07-24T01:16:46.041Z,0
2017-07-24T01:17:47.913Z,0
2017-07-24T01:18:49.780Z,0
2017-07-24T01:19:51.668Z,0
2017-07-24T01:20:53.497Z,0
2017-07-24T01:21:55.326Z,0
2017-07-24T01:22:57.191Z,0
2017-07-24T01:23:59.057Z,0
2017-07-24T01:25:00.934Z,0
2017-07-24T01:26:15.096Z,0
2017-07-24T01:27:16.962Z,0
2017-07-24T01:28:18.829Z,0
2017-07-24T01:29:20.692Z,0
2017-07-24T01:30:22.502Z,0
2017-07-24T01:31:24.341Z,0
2017-07-24T01:32:26.227Z,0
2017-07-24T01:33:28.088Z,0
2017-07-24T01:34:29.957Z,0
2017-07-24T01:35:44.099Z,0
2017-07-24T01:36:45.985Z,0
2017-07-24T01:37:47.884Z,0
2017-07-24T01:38:49.767Z,0
2017-07-24T01:39:51.571Z,0
2017-07-24T01:40:53.378Z,0
2017-07-24T01:41:55.268Z,0
2017-07-24T01:42:57.155Z,0
2017-07-24T01:44:05.295Z,0
2017-07-24T01:45:19.438Z,0
2017-07-24T01:46:21.307Z,0
2017-07-24T01:47:23.177Z,0
2017-07-24T01:48:25.066Z,0
2017-07-24T01:49:26.879Z,0
2017-07-24T01:50:28.711Z,0
2017-07-24T01:51:30.578Z,0
2017-07-24T01:52:32.463Z,0
2017-07-24T01:53:34.329Z,0
2017-07-24T01:54:48.478Z,0
2017-07-24T01:55:50.368Z,0
2017-07-24T01:56:52.258Z,0
2017-07-24T01:57:54.131Z,0
2017-07-24T01:58:55.962Z,0
2017-07-24T01:59:57.766Z,0
2017-07-24T02:00:59.640Z,0
2017-07-24T02:02:01.530Z,0
2017-07-24T02:03:03.400Z,0
2017-07-24T02:04:17.568Z,0
2017-07-24T02:05:19.434Z,0
2017-07-24T02:06:21.307Z,0
2017-07-24T02:07:23.175Z,0
2017-07-24T02:08:25.001Z,0
2017-07-24T02:09:26.815Z,0
2017-07-24T02:10:28.707Z,0
2017-07-24T02:11:30.573Z,0
2017-07-24T02:12:32.440Z,0
2017-07-24T02:13:46.609Z,0
2017-07-24T02:14:48.495Z,0
2017-07-24T02:15:50.364Z,0
2017-07-24T02:16:52.232Z,0
2017-07-24T02:17:54.043Z,0
2017-07-24T02:18:55.851Z,0
2017-07-24T02:19:57.717Z,0
2017-07-24T02:20:59.589Z,0
2017-07-24T02:22:01.450Z,0
2017-07-24T02:23:15.597Z,0
2017-07-24T02:24:17.490Z,0
2017-07-24T02:25:19.379Z,0
2017-07-24T02:26:21.265Z,0
2017-07-24T02:27:23.082Z,0
2017-07-24T02:28:24.908Z,0
2017-07-24T02:29:26.777Z,0
2017-07-24T02:30:28.645Z,0
2017-07-24T02:31:30.533Z,0
2017-07-24T02:32:44.680Z,0
2017-07-24T02:33:46.599Z,0
2017-07-24T02:34:48.490Z,0
2017-07-24T02:35:50.381Z,0
2017-07-24T02:36:52.213Z,0
2017-07-24T02:37:54.046Z,0
2017-07-24T02:38:55.934Z,0
2017-07-24T02:39:57.804Z,4
2017-07-24T02:40:59.667Z,4
2017-07-24T02:42:13.866Z,4
2017-07-24T02:43:15.733Z,0
2017-07-24T02:44:17.623Z,4
2017-07-24T02:45:19.524Z,4
2017-07-24T02:46:21.361Z,8
2017-07-24T02:47:23.188Z,4
2017-07-24T02:48:25.081Z,4
2017-07-24T02:49:26.926Z,4
2017-07-24T02:50:28.791Z,8
2017-07-24T02:51:42.937Z,8
2017-07-24T02:52:44.824Z,12
2017-07-24T02:53:46.698Z,12
2017-07-24T02:54:48.569Z,16
2017-07-24T02:55:50.404Z,16
2017-07-24T02:56:52.240Z,20
2017-07-24T02:57:54.129Z,24
2017-07-24T02:58:56.003Z,28
2017-07-24T02:59:57.895Z,28
2017-07-24T03:01:12.061Z,32
2017-07-24T03:02:13.932Z,32
2017-07-24T03:03:15.831Z,36
2017-07-24T03:04:17.716Z,44
2017-07-24T03:05:19.542Z,44
2017-07-24T03:06:21.362Z,52
2017-07-24T03:07:23.231Z,64
2017-07-24T03:08:25.126Z,72
2017-07-24T03:09:26.994Z,84
2017-07-24T03:10:41.165Z,100
2017-07-24T03:11:43.055Z,108
2017-07-24T03:12:44.921Z,124
2017-07-24T03:13:46.791Z,136
2017-07-24T03:14:48.607Z,152
2017-07-24T03:15:50.438Z,172
2017-07-24T03:16:52.315Z,184
2017-07-24T03:17:54.209Z,192
2017-07-24T03:18:56.108Z,208
2017-07-24T03:20:10.274Z,228
2017-07-24T03:21:12.143Z,244
2017-07-24T03:22:14.010Z,264
2017-07-24T03:23:15.879Z,284
2017-07-24T03:24:17.715Z,308
2017-07-24T03:25:19.547Z,336
2017-07-24T03:26:21.424Z,368
2017-07-24T03:27:23.300Z,396
2017-07-24T03:28:25.185Z,428
2017-07-24T03:29:39.336Z,460
2017-07-24T03:30:41.205Z,480
2017-07-24T03:31:43.078Z,508
2017-07-24T03:32:44.971Z,528
2017-07-24T03:33:46.805Z,540
2017-07-24T03:34:48.618Z,536
2017-07-24T03:35:50.509Z,536
2017-07-24T03:36:52.382Z,540
2017-07-24T03:37:54.260Z,560
2017-07-24T03:39:08.437Z,604
2017-07-24T03:40:10.326Z,648
2017-07-24T03:41:12.197Z,700
2017-07-24T03:42:14.073Z,740
2017-07-24T03:43:15.882Z,800
2017-07-24T03:44:17.698Z,864
2017-07-24T03:45:19.591Z,920
2017-07-24T03:46:21.465Z,968
2017-07-24T03:47:23.329Z,1020
2017-07-24T03:48:37.477Z,1072
2017-07-24T03:49:39.345Z,1104
2017-07-24T03:50:41.216Z,1140
2017-07-24T03:51:43.089Z,1188
2017-07-24T03:52:44.928Z,1244
2017-07-24T03:53:46.761Z,1296
2017-07-24T03:54:48.636Z,1356
2017-07-24T03:55:50.512Z,1416
2017-07-24T03:56:52.401Z,1496
2017-07-24T03:58:06.555Z,1596
2017-07-24T03:59:08.448Z,1676
2017-07-24T04:00:10.341Z,1764
2017-07-24T04:01:12.214Z,1860
2017-07-24T04:02:14.030Z,1952
2017-07-24T04:03:15.868Z,2048
2017-07-24T04:04:17.763Z,2136
2017-07-24T04:05:19.659Z,2240
2017-07-24T04:06:21.531Z,2348
2017-07-24T04:07:35.706Z,2476
2017-07-24T04:08:37.600Z,2556
2017-07-24T04:09:39.473Z,2632
2017-07-24T04:10:41.352Z,2724
2017-07-24T04:11:43.189Z,2852
2017-07-24T04:12:45.027Z,2972
2017-07-24T04:13:46.927Z,3080
2017-07-24T04:14:48.779Z,3172
2017-07-24T04:15:50.592Z,3256
2017-07-24T04:17:04.735Z,3416
2017-07-24T04:18:06.609Z,3476
2017-07-24T04:19:08.509Z,3548
2017-07-24T04:20:10.413Z,3664
2017-07-24T04:21:12.219Z,3916
2017-07-24T04:22:14.026Z,4220
2017-07-24T04:23:15.898Z,4648
2017-07-24T04:24:17.773Z,5304
2017-07-24T04:25:19.665Z,6000
2017-07-24T04:26:33.821Z,6892
2017-07-24T04:27:35.694Z,6940
2017-07-24T04:28:37.589Z,6396
2017-07-24T04:29:39.468Z,6008
2017-07-24T04:30:41.307Z,6020
2017-07-24T04:31:43.126Z,6340
2017-07-24T04:32:44.991Z,6596
2017-07-24T04:33:46.864Z,6100
2017-07-24T04:34:48.738Z,7040
2017-07-24T04:36:02.923Z,7576
2017-07-24T04:37:04.812Z,7156
2017-07-24T04:38:06.685Z,8180
2017-07-24T04:39:08.561Z,8932
2017-07-24T04:40:10.386Z,8904
2017-07-24T04:41:12.216Z,8448
2017-07-24T04:42:14.092Z,7308
2017-07-24T04:43:15.965Z,7268
2017-07-24T04:44:17.839Z,9296
2017-07-24T04:45:32.017Z,8824
2017-07-24T04:46:33.888Z,9572
2017-07-24T04:47:35.761Z,10428
2017-07-24T04:48:37.639Z,10592
2017-07-24T04:49:39.485Z,10384
2017-07-24T04:50:41.327Z,10180
2017-07-24T04:51:43.229Z,10632
2017-07-24T04:52:45.132Z,9948
2017-07-24T04:53:47.021Z,9860
2017-07-24T04:55:01.178Z,10508
2017-07-24T04:56:03.050Z,14656
2017-07-24T04:57:04.931Z,15328
2017-07-24T04:58:06.833Z,15776
2017-07-24T04:59:08.667Z,14752
2017-07-24T05:00:10.487Z,10728
2017-07-24T05:01:12.370Z,12300
2017-07-24T05:02:14.273Z,9292
2017-07-24T05:03:16.169Z,8252
2017-07-24T05:04:30.325Z,9324
2017-07-24T05:05:32.233Z,10720
2017-07-24T05:06:34.106Z,11976
2017-07-24T05:07:36.013Z,13776
2017-07-24T05:08:37.826Z,10592
2017-07-24T05:09:39.651Z,16000
2017-07-24T05:10:41.545Z,9876
2017-07-24T05:11:43.421Z,11968
2017-07-24T05:12:45.302Z,12312
2017-07-24T05:13:59.455Z,11792
2017-07-24T05:15:01.329Z,10648
2017-07-24T05:16:03.231Z,10624
2017-07-24T05:17:05.133Z,10320
2017-07-24T05:18:06.978Z,10008
2017-07-24T05:19:08.817Z,11600
2017-07-24T05:20:10.701Z,12868
2017-07-24T05:21:12.603Z,11772
2017-07-24T05:22:14.498Z,11892
2017-07-24T05:23:28.646Z,12240
2017-07-24T05:24:30.559Z,11636
2017-07-24T05:25:32.458Z,11208
2017-07-24T05:26:34.361Z,10504
2017-07-24T05:27:36.204Z,11016
2017-07-24T05:28:38.047Z,11564
2017-07-24T05:29:39.912Z,13776
2017-07-24T05:30:41.752Z,10576
2017-07-24T05:31:43.593Z,9780
2017-07-24T05:32:57.810Z,9020
2017-07-24T05:33:59.688Z,8612
2017-07-24T05:35:01.591Z,8344
2017-07-24T05:36:03.467Z,8068
2017-07-24T05:37:05.279Z,8080
2017-07-24T05:38:07.097Z,8276
2017-07-24T05:39:08.995Z,8464
2017-07-24T05:40:10.870Z,8708
2017-07-24T05:41:12.749Z,8808
2017-07-24T05:42:26.932Z,9008
2017-07-24T05:43:28.825Z,9068
2017-07-24T05:44:30.721Z,9232
2017-07-24T05:45:32.605Z,9444
2017-07-24T05:46:34.446Z,9764
2017-07-24T05:47:36.286Z,10072
2017-07-24T05:48:38.160Z,10460
2017-07-24T05:49:40.045Z,10848
2017-07-24T05:50:41.941Z,11148
2017-07-24T05:51:56.114Z,11300
2017-07-24T05:52:57.987Z,11284
2017-07-24T05:53:59.865Z,11216
2017-07-24T05:55:01.743Z,11004
2017-07-24T05:56:03.585Z,10728
2017-07-24T05:57:05.430Z,10464
2017-07-24T05:58:07.332Z,10236
2017-07-24T05:59:09.233Z,10088
2017-07-24T06:00:11.107Z,9988
2017-07-24T06:01:25.259Z,9868
2017-07-24T06:02:27.157Z,9776
2017-07-24T06:03:29.059Z,9688
2017-07-24T06:04:30.930Z,9648
2017-07-24T06:05:32.775Z,9564
2017-07-24T06:06:34.614Z,9500
2017-07-24T06:07:36.511Z,9484
2017-07-24T06:08:38.393Z,9528
2017-07-24T06:09:40.292Z,9592
2017-07-24T06:10:54.467Z,9624
2017-07-24T06:11:56.343Z,9624
2017-07-24T06:12:58.240Z,9616
2017-07-24T06:14:00.116Z,9688
2017-07-24T06:15:01.932Z,9772
2017-07-24T06:16:03.750Z,9868
2017-07-24T06:17:05.652Z,10008
2017-07-24T06:18:07.553Z,10176
2017-07-24T06:19:09.450Z,10288
2017-07-24T06:20:23.660Z,10252
2017-07-24T06:21:25.559Z,10200
2017-07-24T06:22:27.432Z,10120
2017-07-24T06:23:29.329Z,9936
2017-07-24T06:24:31.144Z,9712
2017-07-24T06:25:32.963Z,9612
2017-07-24T06:26:34.842Z,9596
2017-07-24T06:27:36.738Z,9588
2017-07-24T06:28:38.575Z,9624
2017-07-24T06:29:52.731Z,9668
2017-07-24T06:30:54.629Z,9800
2017-07-24T06:31:56.526Z,10064
2017-07-24T06:32:58.412Z,10412
2017-07-24T06:34:00.251Z,10788
2017-07-24T06:35:02.091Z,11236
2017-07-24T06:36:03.973Z,11732
2017-07-24T06:37:05.871Z,12064
2017-07-24T06:38:07.769Z,12292
2017-07-24T06:39:21.920Z,12492
2017-07-24T06:40:23.799Z,12668
2017-07-24T06:41:25.704Z,12840
2017-07-24T06:42:27.603Z,12996
2017-07-24T06:43:29.418Z,13144
2017-07-24T06:44:31.238Z,13304
2017-07-24T06:45:33.151Z,13476
2017-07-24T06:46:35.015Z,13556
2017-07-24T06:47:36.909Z,13568
2017-07-24T06:48:51.092Z,13464
2017-07-24T06:49:52.990Z,13452
2017-07-24T06:50:54.895Z,13520
2017-07-24T06:51:56.791Z,13616
2017-07-24T06:52:58.616Z,13828
2017-07-24T06:54:00.452Z,14004
2017-07-24T06:55:02.334Z,14096
2017-07-24T06:56:04.211Z,13916
2017-07-24T06:57:06.112Z,13684
2017-07-24T06:58:20.293Z,13492
2017-07-24T06:59:22.191Z,13428
2017-07-24T07:00:24.088Z,13432
2017-07-24T07:01:25.974Z,13392
2017-07-24T07:02:27.789Z,13436
2017-07-24T07:03:29.660Z,13520
2017-07-24T07:04:31.540Z,13624
2017-07-24T07:05:33.410Z,13756
2017-07-24T07:06:35.308Z,13776
2017-07-24T07:07:49.464Z,13704
2017-07-24T07:08:51.335Z,13724
2017-07-24T07:09:53.214Z,13800
2017-07-24T07:10:55.095Z,13836
2017-07-24T07:11:56.934Z,13852
2017-07-24T07:12:58.752Z,13928
2017-07-24T07:14:00.719Z,14088
2017-07-24T07:15:02.616Z,14376
2017-07-24T07:16:04.495Z,14776
2017-07-24T07:17:19.067Z,15192
2017-07-24T07:18:20.914Z,15416
2017-07-24T07:19:22.788Z,15528
2017-07-24T07:20:24.669Z,15576
2017-07-24T07:21:26.486Z,15724
2017-07-24T07:22:28.308Z,16000
2017-07-24T07:23:30.209Z,16032
2017-07-24T07:24:32.050Z,16000
2017-07-24T07:25:33.889Z,15936
2017-07-24T07:26:48.094Z,15648
2017-07-24T07:27:49.966Z,15468
2017-07-24T07:28:51.873Z,15308
2017-07-24T07:29:53.764Z,15300
2017-07-24T07:30:55.589Z,15384
2017-07-24T07:31:57.434Z,15496
2017-07-24T07:32:59.314Z,15588
2017-07-24T07:34:01.213Z,15724
2017-07-24T07:35:03.089Z,16000
2017-07-24T07:36:17.247Z,16160
2017-07-24T07:37:19.149Z,16224
2017-07-24T07:38:21.051Z,16192
2017-07-24T07:39:22.957Z,16192
2017-07-24T07:40:24.804Z,16160
2017-07-24T07:41:26.648Z,16160
2017-07-24T07:42:28.514Z,16128
2017-07-24T07:43:30.430Z,16128
2017-07-24T07:44:32.244Z,16064
2017-07-24T07:45:46.497Z,16032
2017-07-24T07:46:48.360Z,15904
2017-07-24T07:47:50.262Z,15596
2017-07-24T07:48:52.166Z,15400
2017-07-24T07:49:54.011Z,15280
2017-07-24T07:50:55.854Z,15156
2017-07-24T07:51:57.760Z,15060
2017-07-24T07:52:59.661Z,14940
2017-07-24T07:54:01.540Z,14824
2017-07-24T07:55:15.728Z,14676
2017-07-24T07:56:17.623Z,14524
2017-07-24T07:57:19.525Z,14340
2017-07-24T07:58:21.408Z,14060
2017-07-24T07:59:23.250Z,14092
2017-07-24T08:00:25.120Z,14420
2017-07-24T08:01:26.975Z,14552
2017-07-24T08:02:28.854Z,14728
2017-07-24T08:03:30.728Z,14884
2017-07-24T08:04:44.886Z,14964
2017-07-24T08:05:46.785Z,14904
2017-07-24T08:06:48.648Z,14604
2017-07-24T08:07:50.571Z,14428
2017-07-24T08:08:52.420Z,14404
2017-07-24T08:09:54.244Z,14228
2017-07-24T08:10:56.113Z,13740
2017-07-24T08:11:57.991Z,13256
2017-07-24T08:12:59.953Z,12764
2017-07-24T08:14:14.137Z,12172
2017-07-24T08:15:16.010Z,12012
2017-07-24T08:16:17.890Z,12252
2017-07-24T08:17:19.791Z,12752
2017-07-24T08:18:21.611Z,13400
2017-07-24T08:19:23.548Z,13952
2017-07-24T08:20:25.481Z,14240
2017-07-24T08:21:27.389Z,14448
2017-07-24T08:22:29.258Z,15008
2017-07-24T08:23:43.417Z,16224
2017-07-24T08:24:45.338Z,16928
2017-07-24T08:25:47.236Z,17664
2017-07-24T08:26:49.112Z,18176
2017-07-24T08:27:50.950Z,18176
2017-07-24T08:28:52.782Z,17920
2017-07-24T08:29:54.682Z,17824
2017-07-24T08:30:56.560Z,18016
2017-07-24T08:31:58.459Z,17824
2017-07-24T08:33:12.619Z,17248
2017-07-24T08:34:14.511Z,16704
2017-07-24T08:35:16.399Z,16288
2017-07-24T08:36:18.277Z,16224
2017-07-24T08:37:20.126Z,16832
2017-07-24T08:38:21.972Z,17280
2017-07-24T08:39:23.831Z,17312
2017-07-24T08:40:25.658Z,17472
2017-07-24T08:41:27.509Z,17664
2017-07-24T08:42:41.668Z,17824
2017-07-24T08:43:43.544Z,18112
2017-07-24T08:44:45.421Z,18432
2017-07-24T08:45:47.302Z,18752
2017-07-24T08:46:49.150Z,18976
2017-07-24T08:47:51.005Z,19136
2017-07-24T08:48:52.884Z,19328
2017-07-24T08:49:54.769Z,19264
2017-07-24T08:50:56.678Z,19168
2017-07-24T08:52:10.841Z,19104
2017-07-24T08:53:12.663Z,19168
2017-07-24T08:54:14.528Z,19424
2017-07-24T08:55:16.433Z,19872
2017-07-24T08:56:18.315Z,20352
2017-07-24T08:57:20.190Z,20320
2017-07-24T08:58:22.009Z,19904
2017-07-24T08:59:23.853Z,19424
2017-07-24T09:00:25.732Z,19104
2017-07-24T09:01:39.958Z,19008
2017-07-24T09:02:41.858Z,19040
2017-07-24T09:03:43.763Z,19136
2017-07-24T09:04:45.669Z,19232
2017-07-24T09:05:47.491Z,19200
2017-07-24T09:06:49.334Z,18912
2017-07-24T09:07:51.239Z,18688
2017-07-24T09:08:53.146Z,18656
2017-07-24T09:09:55.047Z,18816
2017-07-24T09:11:09.228Z,18944
2017-07-24T09:12:11.106Z,18976
2017-07-24T09:13:13.014Z,19072
2017-07-24T09:14:14.893Z,19072
2017-07-24T09:15:16.713Z,19232
2017-07-24T09:16:18.564Z,19296
2017-07-24T09:17:20.464Z,19296
2017-07-24T09:18:22.359Z,19136
2017-07-24T09:19:24.242Z,19040
2017-07-24T09:20:38.414Z,18848
2017-07-24T09:21:40.311Z,18784
2017-07-24T09:22:42.191Z,18720
2017-07-24T09:23:44.100Z,18592
2017-07-24T09:24:45.947Z,18400
2017-07-24T09:25:47.790Z,18176
2017-07-24T09:26:49.665Z,17888
2017-07-24T09:27:51.553Z,17632
2017-07-24T09:28:53.456Z,17408
2017-07-24T09:30:07.644Z,17248
2017-07-24T09:31:09.547Z,17248
2017-07-24T09:32:11.450Z,17344
2017-07-24T09:33:13.355Z,17536
2017-07-24T09:34:15.171Z,17760
2017-07-24T09:35:16.998Z,17952
2017-07-24T09:36:18.880Z,18144
2017-07-24T09:37:20.784Z,18208
2017-07-24T09:38:22.696Z,18144
2017-07-24T09:39:36.849Z,18016
2017-07-24T09:40:38.730Z,17824
2017-07-24T09:41:40.607Z,17568
2017-07-24T09:42:42.485Z,17248
2017-07-24T09:43:44.332Z,17024
2017-07-24T09:44:46.149Z,16768
2017-07-24T09:45:48.036Z,16512
2017-07-24T09:46:49.943Z,16288
2017-07-24T09:47:51.845Z,16128
2017-07-24T09:49:06.007Z,15968
2017-07-24T09:50:07.904Z,15936
2017-07-24T09:51:09.784Z,16000
2017-07-24T09:52:11.666Z,16000
2017-07-24T09:53:13.516Z,16000
2017-07-24T09:54:15.358Z,15904
2017-07-24T09:55:17.242Z,15808
2017-07-24T09:56:19.118Z,15776
2017-07-24T09:57:21.019Z,15776
2017-07-24T09:58:35.207Z,15776
2017-07-24T09:59:37.105Z,15808
2017-07-24T10:00:39.015Z,15808
2017-07-24T10:01:40.889Z,15840
2017-07-24T10:02:42.708Z,15840
2017-07-24T10:03:44.532Z,15936
2017-07-24T10:04:46.424Z,16000
2017-07-24T10:05:48.307Z,16032
2017-07-24T10:06:50.188Z,16032
2017-07-24T10:08:04.349Z,15904
2017-07-24T10:09:06.253Z,15648
2017-07-24T10:10:08.152Z,15440
2017-07-24T10:11:10.031Z,15236
2017-07-24T10:12:11.857Z,15076
2017-07-24T10:13:13.672Z,14924
2017-07-24T10:14:15.553Z,14780
2017-07-24T10:15:17.436Z,14624
2017-07-24T10:16:19.320Z,14540
2017-07-24T10:17:33.500Z,14496
2017-07-24T10:18:35.384Z,14416
2017-07-24T10:19:37.287Z,14304
2017-07-24T10:20:39.192Z,14324
2017-07-24T10:21:41.008Z,14448
2017-07-24T10:22:42.833Z,14580
2017-07-24T10:23:44.717Z,14648
2017-07-24T10:24:46.617Z,14676
2017-07-24T10:25:48.525Z,14764
2017-07-24T10:27:02.686Z,15036
2017-07-24T10:28:04.567Z,15316
2017-07-24T10:29:06.442Z,15592
2017-07-24T10:30:08.324Z,15936
2017-07-24T10:31:10.164Z,16128
2017-07-24T10:32:11.988Z,16288
2017-07-24T10:33:13.875Z,16384
2017-07-24T10:34:15.773Z,16480
2017-07-24T10:35:17.653Z,16672
2017-07-24T10:36:31.811Z,16800
2017-07-24T10:37:33.690Z,16768
2017-07-24T10:38:35.575Z,16672
2017-07-24T10:39:37.452Z,16544
2017-07-24T10:40:39.272Z,16416
2017-07-24T10:41:41.102Z,16192
2017-07-24T10:42:43.001Z,15968
2017-07-24T10:43:44.904Z,15624
2017-07-24T10:44:46.789Z,15460
2017-07-24T10:46:00.973Z,15404
2017-07-24T10:47:02.876Z,15472
2017-07-24T10:48:04.771Z,15572
2017-07-24T10:49:06.649Z,15668
2017-07-24T10:50:08.471Z,15840
2017-07-24T10:51:10.303Z,15872
2017-07-24T10:52:12.214Z,15872
2017-07-24T10:53:14.115Z,15872
2017-07-24T10:54:16.002Z,15904
2017-07-24T10:55:30.155Z,16032
2017-07-24T10:56:32.064Z,16224
2017-07-24T10:57:33.969Z,16416
2017-07-24T10:58:35.857Z,16576
2017-07-24T10:59:37.701Z,16672
2017-07-24T11:00:39.525Z,16704
2017-07-24T11:01:41.410Z,16768
2017-07-24T11:02:43.314Z,16832
2017-07-24T11:03:45.198Z,16768
2017-07-24T11:04:59.408Z,16576
2017-07-24T11:06:01.309Z,16320
2017-07-24T11:07:03.215Z,16064
2017-07-24T11:08:05.131Z,15904
2017-07-24T11:09:06.972Z,15872
2017-07-24T11:10:08.788Z,15936
2017-07-24T11:11:10.666Z,16032
2017-07-24T11:12:12.554Z,16192
2017-07-24T11:13:14.431Z,16352
2017-07-24T11:14:28.621Z,16704
2017-07-24T11:15:30.533Z,17024
2017-07-24T11:16:32.445Z,17472
2017-07-24T11:17:34.360Z,17952
2017-07-24T11:18:36.198Z,18304
2017-07-24T11:19:38.042Z,18592
2017-07-24T11:20:39.933Z,18976
2017-07-24T11:21:42.077Z,19360
2017-07-24T11:22:44.107Z,19616
2017-07-24T11:23:58.284Z,19808
2017-07-24T11:25:00.169Z,19776
2017-07-24T11:26:02.074Z,19808
2017-07-24T11:27:03.950Z,19744
2017-07-24T11:28:05.782Z,19904
2017-07-24T11:29:07.630Z,19808
2017-07-24T11:30:09.535Z,19584
2017-07-24T11:31:11.467Z,19328
2017-07-24T11:32:13.326Z,19232
2017-07-24T11:33:27.520Z,19264
2017-07-24T11:34:29.422Z,19104
2017-07-24T11:35:31.356Z,18880
2017-07-24T11:36:33.242Z,18784
2017-07-24T11:37:35.084Z,18816
2017-07-24T11:38:36.926Z,18912
2017-07-24T11:39:38.812Z,18944
2017-07-24T11:40:40.720Z,18848
2017-07-24T11:41:42.625Z,18816
2017-07-24T11:42:56.789Z,19008
2017-07-24T11:43:58.646Z,18912
2017-07-24T11:45:00.578Z,18528
2017-07-24T11:46:02.477Z,18144
2017-07-24T11:47:04.312Z,17600
2017-07-24T11:48:06.160Z,17408
2017-07-24T11:49:08.071Z,17344
2017-07-24T11:50:09.970Z,17504
2017-07-24T11:51:11.859Z,17920
2017-07-24T11:52:26.020Z,18400
2017-07-24T11:53:27.934Z,18656
2017-07-24T11:54:29.833Z,18848
2017-07-24T11:55:31.746Z,18912
2017-07-24T11:56:33.600Z,18944
2017-07-24T11:57:35.451Z,18944
2017-07-24T11:58:37.371Z,18976
2017-07-24T11:59:39.275Z,19008
2017-07-24T12:00:41.174Z,19040
2017-07-24T12:01:55.351Z,19136
2017-07-24T12:02:57.237Z,19296
2017-07-24T12:03:59.146Z,19456
2017-07-24T12:05:01.047Z,19552
2017-07-24T12:06:02.910Z,19680
2017-07-24T12:07:04.719Z,19744
2017-07-24T12:08:06.622Z,19808
2017-07-24T12:09:08.531Z,19840
2017-07-24T12:10:10.411Z,19744
2017-07-24T12:11:24.653Z,19616
2017-07-24T12:12:26.550Z,19520
2017-07-24T12:13:28.458Z,19488
2017-07-24T12:14:30.373Z,19520
2017-07-24T12:15:32.217Z,19488
2017-07-24T12:16:34.069Z,19488
2017-07-24T12:17:35.945Z,19456
2017-07-24T12:18:37.849Z,19424
2017-07-24T12:19:39.732Z,19328
2017-07-24T12:20:53.965Z,19200
2017-07-24T12:21:55.851Z,19168
2017-07-24T12:22:57.757Z,19200
2017-07-24T12:23:59.637Z,19232
2017-07-24T12:25:01.490Z,19328
2017-07-24T12:26:03.336Z,19424
2017-07-24T12:27:05.242Z,19552
2017-07-24T12:28:07.133Z,19552
2017-07-24T12:29:09.006Z,19488
2017-07-24T12:30:23.168Z,19424
2017-07-24T12:31:25.051Z,19520
2017-07-24T12:32:26.930Z,19616
2017-07-24T12:33:28.814Z,19648
2017-07-24T12:34:30.642Z,19520
2017-07-24T12:35:32.485Z,19456
2017-07-24T12:36:34.391Z,19424
2017-07-24T12:37:36.301Z,19424
2017-07-24T12:38:38.180Z,19328
2017-07-24T12:39:52.377Z,19200
2017-07-24T12:40:54.346Z,19072
2017-07-24T12:41:56.306Z,18912
2017-07-24T12:42:58.264Z,18848
2017-07-24T12:44:00.093Z,18816
2017-07-24T12:45:01.912Z,18752
2017-07-24T12:46:03.838Z,18688
2017-07-24T12:47:05.786Z,18688
2017-07-24T12:48:07.683Z,18656
2017-07-24T12:49:21.862Z,18592
2017-07-24T12:50:23.748Z,18464
2017-07-24T12:51:25.660Z,18336
2017-07-24T12:52:27.548Z,18208
2017-07-24T12:53:29.401Z,18016
2017-07-24T12:54:31.273Z,17824
2017-07-24T12:55:33.166Z,17600
2017-07-24T12:56:35.077Z,17376
2017-07-24T12:57:37.017Z,17152
2017-07-24T12:58:51.226Z,16928
2017-07-24T12:59:53.177Z,16896
2017-07-24T13:00:55.092Z,16736
2017-07-24T13:01:56.984Z,16448
2017-07-24T13:02:58.807Z,16032
2017-07-24T13:04:00.655Z,15328
2017-07-24T13:05:02.611Z,14812
2017-07-24T13:06:04.519Z,14452
2017-07-24T13:07:06.422Z,14120
2017-07-24T13:08:20.612Z,13856
2017-07-24T13:09:22.491Z,13744
2017-07-24T13:10:24.372Z,13788
2017-07-24T13:11:26.282Z,13912
2017-07-24T13:12:28.128Z,13900
2017-07-24T13:13:29.975Z,14076
2017-07-24T13:14:31.882Z,14356
2017-07-24T13:15:33.813Z,14444
2017-07-24T13:16:35.683Z,14264
2017-07-24T13:17:49.840Z,14488
2017-07-24T13:18:51.722Z,14804
2017-07-24T13:19:53.639Z,15100
2017-07-24T13:20:55.519Z,15408
2017-07-24T13:21:57.340Z,15708
2017-07-24T13:22:59.155Z,16032
2017-07-24T13:24:01.044Z,16160
2017-07-24T13:25:02.948Z,16384
2017-07-24T13:26:04.833Z,16672
2017-07-24T13:27:18.997Z,16896
2017-07-24T13:28:20.903Z,17088
2017-07-24T13:29:22.810Z,17216
2017-07-24T13:30:24.675Z,17280
2017-07-24T13:31:26.500Z,17280
2017-07-24T13:32:28.320Z,17184
2017-07-24T13:33:30.205Z,16896
2017-07-24T13:34:32.113Z,16416
2017-07-24T13:35:34.018Z,16160
2017-07-24T13:36:48.171Z,16096
2017-07-24T13:37:50.058Z,16224
2017-07-24T13:43:08.169Z,14636
2017-07-24T13:44:10.118Z,14120
2017-07-24T13:45:11.930Z,13840
2017-07-24T13:46:13.748Z,13880
2017-07-24T13:47:15.618Z,13856
2017-07-24T13:48:17.501Z,13732
2017-07-24T13:49:19.410Z,13488
2017-07-24T13:50:21.225Z,13024
2017-07-24T13:51:35.404Z,12160
2017-07-24T13:52:37.269Z,11524
2017-07-24T13:53:39.189Z,11004
2017-07-24T13:54:41.224Z,10740
2017-07-24T13:55:43.080Z,10804
2017-07-24T13:56:44.925Z,11076
2017-07-24T13:57:46.805Z,11332
2017-07-24T13:58:48.712Z,11480
2017-07-24T13:59:50.596Z,11508
2017-07-24T14:01:04.775Z,11440
2017-07-24T14:02:06.652Z,11140
2017-07-24T14:03:08.553Z,10768
2017-07-24T14:04:10.459Z,10416
2017-07-24T14:05:12.277Z,10180
2017-07-24T14:06:14.119Z,10016
2017-07-24T14:07:15.992Z,9900
2017-07-24T14:08:17.873Z,9884
2017-07-24T14:09:19.756Z,9944